This is the latest recevied weather packets stored in our database for station/object EA3GKP-7. If no packets are shown the sender has not sent any weather packets the latest 10 day(s).
| Time | Temp. | Humidity | Pressure | Rain* | Wind** | Luminosity | Snow |
|---|---|---|---|---|---|---|---|
| 1787997328 | 30° C | 40% | 1023.1 hPa | - | - | - | - |
| 1787997027 | 30.56° C | 38% | 1023.2 hPa | - | - | - | - |
| 1787996727 | 30.56° C | 38% | 1023.4 hPa | - | - | - | - |
| 1787996427 | 30.56° C | 38% | 1023.2 hPa | - | - | - | - |
| 1787996127 | 30° C | 38% | 1023.2 hPa | - | - | - | - |
| 1787995827 | 30° C | 37% | 1023.3 hPa | - | - | - | - |
| 1787995527 | 30.56° C | 37% | 1023.4 hPa | - | - | - | - |
| 1787995227 | 30° C | 38% | 1023.3 hPa | - | - | - | - |
| 1787994927 | 29.44° C | 38% | 1023.3 hPa | - | - | - | - |
| 1787994627 | 28.89° C | 40% | 1023.2 hPa | - | - | - | - |
| 1787994327 | 30° C | 36% | 1023.3 hPa | - | - | - | - |
| 1787994027 | 30° C | 37% | 1023.2 hPa | - | - | - | - |
| 1787993727 | 30° C | 38% | 1023.1 hPa | - | - | - | - |
| 1787993427 | 30° C | 39% | 1023.1 hPa | - | - | - | - |
| 1787993127 | 30° C | 40% | 1022.9 hPa | - | - | - | - |
| 1787992827 | 29.44° C | 39% | 1023 hPa | - | - | - | - |
| 1787992527 | 28.89° C | 40% | 1023 hPa | - | - | - | - |
| 1787992227 | 29.44° C | 41% | 1022.7 hPa | - | - | - | - |
| 1787991927 | 28.89° C | 41% | 1022.9 hPa | - | - | - | - |
| 1787991627 | 28.89° C | 40% | 1022.8 hPa | - | - | - | - |
| 1787991327 | 28.89° C | 41% | 1022.8 hPa | - | - | - | - |
| 1787991027 | 28.33° C | 41% | 1022.6 hPa | - | - | - | - |
| 1787990727 | 28.33° C | 42% | 1022.6 hPa | - | - | - | - |
| 1787990427 | 27.78° C | 43% | 1022.6 hPa | - | - | - | - |
| 1787990127 | 28.33° C | 43% | 1022.5 hPa | - | - | - | - |
* Rain since midnight (hover to see other rain measurements)
** Current wind speed in m/s (hover to see current wind gust speed)